sensor_id;sensor_type;location;lat;lon;timestamp;temperature;humidity
61253;DHT22;47127;47.516;8.596;2022-12-24T00:01:55;12.50;99.90
61253;DHT22;47127;47.516;8.596;2022-12-24T00:04:20;12.50;99.90
61253;DHT22;47127;47.516;8.596;2022-12-24T00:06:46;12.50;99.90
61253;DHT22;47127;47.516;8.596;2022-12-24T00:09:11;12.40;99.90
61253;DHT22;47127;47.516;8.596;2022-12-24T00:11:37;12.50;99.90
61253;DHT22;47127;47.516;8.596;2022-12-24T00:14:03;12.50;99.90
61253;DHT22;47127;47.516;8.596;2022-12-24T00:16:28;12.50;99.90
61253;DHT22;47127;47.516;8.596;2022-12-24T00:18:54;12.50;99.90
61253;DHT22;47127;47.516;8.596;2022-12-24T00:21:20;12.50;99.90
61253;DHT22;47127;47.516;8.596;2022-12-24T00:23:45;12.60;99.90
61253;DHT22;47127;47.516;8.596;2022-12-24T00:26:12;12.50;99.90
61253;DHT22;47127;47.516;8.596;2022-12-24T00:28:37;12.40;99.90
61253;DHT22;47127;47.516;8.596;2022-12-24T00:31:07;12.40;99.90
61253;DHT22;47127;47.516;8.596;2022-12-24T00:33:33;12.50;99.90
61253;DHT22;47127;47.516;8.596;2022-12-24T00:35:59;12.50;99.90
61253;DHT22;47127;47.516;8.596;2022-12-24T00:38:24;12.50;99.90
61253;DHT22;47127;47.516;8.596;2022-12-24T00:40:50;12.60;99.90
61253;DHT22;47127;47.516;8.596;2022-12-24T00:43:15;12.60;99.90
61253;DHT22;47127;47.516;8.596;2022-12-24T00:45:41;12.60;99.90
61253;DHT22;47127;47.516;8.596;2022-12-24T00:48:06;12.60;99.90
61253;DHT22;47127;47.516;8.596;2022-12-24T00:50:32;12.60;99.90
61253;DHT22;47127;47.516;8.596;2022-12-24T00:52:57;12.50;99.90
61253;DHT22;47127;47.516;8.596;2022-12-24T00:55:23;12.50;99.90
61253;DHT22;47127;47.516;8.596;2022-12-24T00:57:48;12.60;99.90
61253;DHT22;47127;47.516;8.596;2022-12-24T01:00:14;12.60;99.90
61253;DHT22;47127;47.516;8.596;2022-12-24T01:02:42;12.50;99.90
61253;DHT22;47127;47.516;8.596;2022-12-24T01:05:09;12.50;99.90
61253;DHT22;47127;47.516;8.596;2022-12-24T01:07:36;12.50;99.90
61253;DHT22;47127;47.516;8.596;2022-12-24T01:10:03;12.50;99.90
61253;DHT22;47127;47.516;8.596;2022-12-24T01:12:29;12.50;99.90
61253;DHT22;47127;47.516;8.596;2022-12-24T01:14:54;12.50;99.90
61253;DHT22;47127;47.516;8.596;2022-12-24T01:17:20;12.50;99.90
61253;DHT22;47127;47.516;8.596;2022-12-24T01:19:46;12.50;99.90
61253;DHT22;47127;47.516;8.596;2022-12-24T01:22:11;12.50;99.90
61253;DHT22;47127;47.516;8.596;2022-12-24T01:24:39;12.50;99.90
61253;DHT22;47127;47.516;8.596;2022-12-24T01:27:04;12.50;99.90
61253;DHT22;47127;47.516;8.596;2022-12-24T01:29:30;12.50;99.90
61253;DHT22;47127;47.516;8.596;2022-12-24T01:31:55;12.50;99.90
61253;DHT22;47127;47.516;8.596;2022-12-24T01:34:21;12.50;99.90
61253;DHT22;47127;47.516;8.596;2022-12-24T01:36:46;12.50;99.90
61253;DHT22;47127;47.516;8.596;2022-12-24T01:39:12;12.50;99.90
61253;DHT22;47127;47.516;8.596;2022-12-24T01:41:37;12.50;99.90
61253;DHT22;47127;47.516;8.596;2022-12-24T01:44:30;12.50;99.90
61253;DHT22;47127;47.516;8.596;2022-12-24T01:49:40;12.20;99.90
61253;DHT22;47127;47.516;8.596;2022-12-24T01:52:11;12.20;99.90
61253;DHT22;47127;47.516;8.596;2022-12-24T01:54:42;12.20;99.90
61253;DHT22;47127;47.516;8.596;2022-12-24T01:57:15;12.20;99.90
61253;DHT22;47127;47.516;8.596;2022-12-24T01:59:44;12.30;99.90
61253;DHT22;47127;47.516;8.596;2022-12-24T02:02:11;12.20;99.90
61253;DHT22;47127;47.516;8.596;2022-12-24T02:04:45;12.10;99.90
61253;DHT22;47127;47.516;8.596;2022-12-24T02:07:14;12.10;99.90
61253;DHT22;47127;47.516;8.596;2022-12-24T02:09:40;12.00;99.90
61253;DHT22;47127;47.516;8.596;2022-12-24T02:12:06;12.00;99.90
61253;DHT22;47127;47.516;8.596;2022-12-24T02:14:32;12.00;99.90
61253;DHT22;47127;47.516;8.596;2022-12-24T02:17:29;12.10;99.90
61253;DHT22;47127;47.516;8.596;2022-12-24T02:31:09;12.00;99.90
61253;DHT22;47127;47.516;8.596;2022-12-24T02:33:43;12.00;99.90
61253;DHT22;47127;47.516;8.596;2022-12-24T02:36:39;12.00;99.90
61253;DHT22;47127;47.516;8.596;2022-12-24T02:39:36;12.10;99.90
61253;DHT22;47127;47.516;8.596;2022-12-24T02:42:04;12.10;99.90
61253;DHT22;47127;47.516;8.596;2022-12-24T02:44:35;12.10;99.90
61253;DHT22;47127;47.516;8.596;2022-12-24T02:47:04;12.10;99.90
61253;DHT22;47127;47.516;8.596;2022-12-24T02:49:30;12.00;99.90
61253;DHT22;47127;47.516;8.596;2022-12-24T02:51:56;12.00;99.90
61253;DHT22;47127;47.516;8.596;2022-12-24T02:54:21;12.00;99.90
61253;DHT22;47127;47.516;8.596;2022-12-24T02:56:51;12.00;99.90
61253;DHT22;47127;47.516;8.596;2022-12-24T02:59:50;12.00;99.90
61253;DHT22;47127;47.516;8.596;2022-12-24T03:05:16;12.00;99.90
61253;DHT22;47127;47.516;8.596;2022-12-24T03:07:55;12.00;99.90
61253;DHT22;47127;47.516;8.596;2022-12-24T03:10:39;12.00;99.90
61253;DHT22;47127;47.516;8.596;2022-12-24T03:13:15;12.00;99.90
61253;DHT22;47127;47.516;8.596;2022-12-24T03:15:41;12.00;99.90
61253;DHT22;47127;47.516;8.596;2022-12-24T03:18:10;12.00;99.90
61253;DHT22;47127;47.516;8.596;2022-12-24T03:20:39;11.90;99.90
61253;DHT22;47127;47.516;8.596;2022-12-24T03:23:06;11.90;99.90
61253;DHT22;47127;47.516;8.596;2022-12-24T03:25:32;11.90;99.90
61253;DHT22;47127;47.516;8.596;2022-12-24T03:28:01;11.90;99.90
61253;DHT22;47127;47.516;8.596;2022-12-24T03:30:27;11.90;99.90
61253;DHT22;47127;47.516;8.596;2022-12-24T03:32:53;11.90;99.90
61253;DHT22;47127;47.516;8.596;2022-12-24T03:35:18;12.00;99.90
61253;DHT22;47127;47.516;8.596;2022-12-24T03:37:44;11.90;99.90
61253;DHT22;47127;47.516;8.596;2022-12-24T03:40:10;11.90;99.90
61253;DHT22;47127;47.516;8.596;2022-12-24T03:42:36;11.90;99.90
61253;DHT22;47127;47.516;8.596;2022-12-24T03:45:01;11.90;99.90
61253;DHT22;47127;47.516;8.596;2022-12-24T03:47:27;11.90;99.90
61253;DHT22;47127;47.516;8.596;2022-12-24T03:49:52;11.80;99.90
61253;DHT22;47127;47.516;8.596;2022-12-24T03:52:18;11.90;99.90
61253;DHT22;47127;47.516;8.596;2022-12-24T03:54:43;11.80;99.90
61253;DHT22;47127;47.516;8.596;2022-12-24T03:57:09;11.80;99.90
61253;DHT22;47127;47.516;8.596;2022-12-24T03:59:34;11.80;99.90
61253;DHT22;47127;47.516;8.596;2022-12-24T04:02:00;11.80;99.90
61253;DHT22;47127;47.516;8.596;2022-12-24T04:04:26;11.70;99.90
61253;DHT22;47127;47.516;8.596;2022-12-24T04:06:51;11.70;99.90
61253;DHT22;47127;47.516;8.596;2022-12-24T04:09:17;11.70;99.90
61253;DHT22;47127;47.516;8.596;2022-12-24T04:11:42;11.80;99.90
61253;DHT22;47127;47.516;8.596;2022-12-24T04:14:08;11.70;99.90
61253;DHT22;47127;47.516;8.596;2022-12-24T04:16:33;11.80;99.90
61253;DHT22;47127;47.516;8.596;2022-12-24T04:18:59;11.80;99.90
61253;DHT22;47127;47.516;8.596;2022-12-24T04:21:24;11.80;99.90
61253;DHT22;47127;47.516;8.596;2022-12-24T04:23:50;11.80;99.90
61253;DHT22;47127;47.516;8.596;2022-12-24T04:26:16;11.80;99.90
61253;DHT22;47127;47.516;8.596;2022-12-24T04:28:42;11.80;99.90
61253;DHT22;47127;47.516;8.596;2022-12-24T04:31:13;11.70;99.90
61253;DHT22;47127;47.516;8.596;2022-12-24T04:33:39;11.80;99.90
61253;DHT22;47127;47.516;8.596;2022-12-24T04:36:06;11.80;99.90
61253;DHT22;47127;47.516;8.596;2022-12-24T04:38:33;11.80;99.90
61253;DHT22;47127;47.516;8.596;2022-12-24T04:41:04;11.80;99.90
61253;DHT22;47127;47.516;8.596;2022-12-24T04:43:30;11.70;99.90
61253;DHT22;47127;47.516;8.596;2022-12-24T04:46:02;11.70;99.90
61253;DHT22;47127;47.516;8.596;2022-12-24T04:48:28;11.70;99.90
61253;DHT22;47127;47.516;8.596;2022-12-24T04:50:53;11.60;99.90
61253;DHT22;47127;47.516;8.596;2022-12-24T04:53:19;11.60;99.90
61253;DHT22;47127;47.516;8.596;2022-12-24T04:55:45;11.70;99.90
61253;DHT22;47127;47.516;8.596;2022-12-24T04:58:11;11.60;99.90
61253;DHT22;47127;47.516;8.596;2022-12-24T05:00:37;11.60;99.90
61253;DHT22;47127;47.516;8.596;2022-12-24T05:03:03;11.60;99.90
61253;DHT22;47127;47.516;8.596;2022-12-24T05:05:28;11.60;99.90
61253;DHT22;47127;47.516;8.596;2022-12-24T05:07:54;11.60;99.90
61253;DHT22;47127;47.516;8.596;2022-12-24T05:10:19;11.60;99.90
61253;DHT22;47127;47.516;8.596;2022-12-24T05:12:45;11.60;99.90
61253;DHT22;47127;47.516;8.596;2022-12-24T05:15:10;11.60;99.90
61253;DHT22;47127;47.516;8.596;2022-12-24T05:17:36;11.60;99.90
61253;DHT22;47127;47.516;8.596;2022-12-24T05:20:02;11.60;99.90
61253;DHT22;47127;47.516;8.596;2022-12-24T05:22:27;11.50;99.90
61253;DHT22;47127;47.516;8.596;2022-12-24T05:25:11;11.40;99.90
61253;DHT22;47127;47.516;8.596;2022-12-24T05:27:56;11.30;99.90
61253;DHT22;47127;47.516;8.596;2022-12-24T05:30:21;11.30;99.90
61253;DHT22;47127;47.516;8.596;2022-12-24T05:32:47;11.20;99.90
61253;DHT22;47127;47.516;8.596;2022-12-24T05:35:12;11.20;99.90
61253;DHT22;47127;47.516;8.596;2022-12-24T05:37:38;11.20;99.90
61253;DHT22;47127;47.516;8.596;2022-12-24T05:40:04;11.30;99.90
61253;DHT22;47127;47.516;8.596;2022-12-24T05:42:29;11.30;99.90
61253;DHT22;47127;47.516;8.596;2022-12-24T05:44:55;11.30;99.90
61253;DHT22;47127;47.516;8.596;2022-12-24T05:47:20;11.20;99.90
61253;DHT22;47127;47.516;8.596;2022-12-24T05:49:46;11.10;99.90
61253;DHT22;47127;47.516;8.596;2022-12-24T05:52:11;11.00;99.90
61253;DHT22;47127;47.516;8.596;2022-12-24T05:54:38;11.10;99.90
61253;DHT22;47127;47.516;8.596;2022-12-24T05:57:03;11.00;99.90
61253;DHT22;47127;47.516;8.596;2022-12-24T05:59:29;11.10;99.90
61253;DHT22;47127;47.516;8.596;2022-12-24T06:01:54;11.20;99.90
61253;DHT22;47127;47.516;8.596;2022-12-24T06:04:20;11.10;99.90
61253;DHT22;47127;47.516;8.596;2022-12-24T06:06:45;11.20;99.90
61253;DHT22;47127;47.516;8.596;2022-12-24T06:09:11;11.10;99.90
61253;DHT22;47127;47.516;8.596;2022-12-24T06:11:36;11.10;99.90
61253;DHT22;47127;47.516;8.596;2022-12-24T06:14:02;11.20;99.90
61253;DHT22;47127;47.516;8.596;2022-12-24T06:16:27;11.30;99.90
61253;DHT22;47127;47.516;8.596;2022-12-24T06:18:53;11.40;99.90
61253;DHT22;47127;47.516;8.596;2022-12-24T06:21:19;11.30;99.90
61253;DHT22;47127;47.516;8.596;2022-12-24T06:23:45;11.30;99.90
61253;DHT22;47127;47.516;8.596;2022-12-24T06:26:17;11.30;99.90
61253;DHT22;47127;47.516;8.596;2022-12-24T06:28:44;11.30;99.90
61253;DHT22;47127;47.516;8.596;2022-12-24T06:31:12;11.40;99.90
61253;DHT22;47127;47.516;8.596;2022-12-24T06:33:38;11.40;99.90
61253;DHT22;47127;47.516;8.596;2022-12-24T06:36:09;11.30;99.90
61253;DHT22;47127;47.516;8.596;2022-12-24T06:38:37;11.30;99.90
61253;DHT22;47127;47.516;8.596;2022-12-24T06:41:07;11.30;99.90
61253;DHT22;47127;47.516;8.596;2022-12-24T06:43:33;11.20;99.90
61253;DHT22;47127;47.516;8.596;2022-12-24T06:46:00;11.20;99.90
61253;DHT22;47127;47.516;8.596;2022-12-24T06:48:26;11.10;99.90
61253;DHT22;47127;47.516;8.596;2022-12-24T06:50:53;11.20;99.90
61253;DHT22;47127;47.516;8.596;2022-12-24T06:53:18;11.10;99.90
61253;DHT22;47127;47.516;8.596;2022-12-24T06:55:44;11.10;99.90
61253;DHT22;47127;47.516;8.596;2022-12-24T06:58:10;11.10;99.90
61253;DHT22;47127;47.516;8.596;2022-12-24T07:00:36;11.10;99.90
61253;DHT22;47127;47.516;8.596;2022-12-24T07:03:02;11.00;99.90
61253;DHT22;47127;47.516;8.596;2022-12-24T07:05:28;10.90;99.90
61253;DHT22;47127;47.516;8.596;2022-12-24T07:07:54;10.90;99.90
61253;DHT22;47127;47.516;8.596;2022-12-24T07:10:20;10.80;99.90
61253;DHT22;47127;47.516;8.596;2022-12-24T07:12:46;10.70;99.90
61253;DHT22;47127;47.516;8.596;2022-12-24T07:15:13;10.60;99.90
61253;DHT22;47127;47.516;8.596;2022-12-24T07:17:39;10.60;99.90
61253;DHT22;47127;47.516;8.596;2022-12-24T07:20:05;10.50;99.90
61253;DHT22;47127;47.516;8.596;2022-12-24T07:22:31;10.50;99.90
61253;DHT22;47127;47.516;8.596;2022-12-24T07:24:56;10.40;99.90
61253;DHT22;47127;47.516;8.596;2022-12-24T07:27:22;10.30;99.90
61253;DHT22;47127;47.516;8.596;2022-12-24T07:29:47;10.30;99.90
61253;DHT22;47127;47.516;8.596;2022-12-24T07:32:13;10.30;99.90
61253;DHT22;47127;47.516;8.596;2022-12-24T07:34:38;10.20;99.90
61253;DHT22;47127;47.516;8.596;2022-12-24T07:37:05;10.30;99.90
61253;DHT22;47127;47.516;8.596;2022-12-24T07:39:30;10.30;99.90
61253;DHT22;47127;47.516;8.596;2022-12-24T07:41:56;10.30;99.90
61253;DHT22;47127;47.516;8.596;2022-12-24T07:44:21;10.30;99.90
61253;DHT22;47127;47.516;8.596;2022-12-24T07:46:47;10.30;99.90
61253;DHT22;47127;47.516;8.596;2022-12-24T07:49:12;10.30;99.90
61253;DHT22;47127;47.516;8.596;2022-12-24T07:51:38;10.30;99.90
61253;DHT22;47127;47.516;8.596;2022-12-24T07:54:03;10.20;99.90
61253;DHT22;47127;47.516;8.596;2022-12-24T07:56:30;10.10;99.90
61253;DHT22;47127;47.516;8.596;2022-12-24T07:58:56;10.10;99.90
61253;DHT22;47127;47.516;8.596;2022-12-24T08:01:21;10.10;99.90
61253;DHT22;47127;47.516;8.596;2022-12-24T08:03:47;10.10;99.90
61253;DHT22;47127;47.516;8.596;2022-12-24T08:06:15;10.10;99.90
61253;DHT22;47127;47.516;8.596;2022-12-24T08:08:41;10.00;99.90
61253;DHT22;47127;47.516;8.596;2022-12-24T08:11:07;10.00;99.90
61253;DHT22;47127;47.516;8.596;2022-12-24T08:13:33;10.00;99.90
61253;DHT22;47127;47.516;8.596;2022-12-24T08:15:59;10.00;99.90
61253;DHT22;47127;47.516;8.596;2022-12-24T08:18:24;10.00;99.90
61253;DHT22;47127;47.516;8.596;2022-12-24T08:20:50;10.00;99.90
61253;DHT22;47127;47.516;8.596;2022-12-24T08:23:16;10.00;99.90
61253;DHT22;47127;47.516;8.596;2022-12-24T08:25:43;10.10;99.90
61253;DHT22;47127;47.516;8.596;2022-12-24T08:28:09;10.00;99.90
61253;DHT22;47127;47.516;8.596;2022-12-24T08:30:35;10.00;99.90
61253;DHT22;47127;47.516;8.596;2022-12-24T08:33:00;10.00;99.90
61253;DHT22;47127;47.516;8.596;2022-12-24T08:35:26;9.90;99.90
61253;DHT22;47127;47.516;8.596;2022-12-24T08:37:52;9.90;99.90
61253;DHT22;47127;47.516;8.596;2022-12-24T08:40:17;9.90;99.90
61253;DHT22;47127;47.516;8.596;2022-12-24T08:42:43;9.90;99.90
61253;DHT22;47127;47.516;8.596;2022-12-24T08:45:09;10.00;99.90
61253;DHT22;47127;47.516;8.596;2022-12-24T08:47:36;10.00;99.90
61253;DHT22;47127;47.516;8.596;2022-12-24T08:50:03;10.00;99.90
61253;DHT22;47127;47.516;8.596;2022-12-24T08:52:28;9.90;99.90
61253;DHT22;47127;47.516;8.596;2022-12-24T08:54:54;10.00;99.90
61253;DHT22;47127;47.516;8.596;2022-12-24T08:57:19;10.00;99.90
61253;DHT22;47127;47.516;8.596;2022-12-24T08:59:45;10.00;99.90
61253;DHT22;47127;47.516;8.596;2022-12-24T09:02:10;10.00;99.90
61253;DHT22;47127;47.516;8.596;2022-12-24T09:04:39;10.00;99.90
61253;DHT22;47127;47.516;8.596;2022-12-24T09:07:06;10.00;99.90
61253;DHT22;47127;47.516;8.596;2022-12-24T09:09:32;10.00;99.90
61253;DHT22;47127;47.516;8.596;2022-12-24T09:11:57;9.90;99.90
61253;DHT22;47127;47.516;8.596;2022-12-24T09:14:23;10.00;99.90
61253;DHT22;47127;47.516;8.596;2022-12-24T09:16:48;10.00;99.90
61253;DHT22;47127;47.516;8.596;2022-12-24T09:19:14;10.00;99.90
61253;DHT22;47127;47.516;8.596;2022-12-24T09:21:39;9.90;99.90
61253;DHT22;47127;47.516;8.596;2022-12-24T09:24:05;10.00;99.90
61253;DHT22;47127;47.516;8.596;2022-12-24T09:26:31;10.00;99.90
61253;DHT22;47127;47.516;8.596;2022-12-24T09:28:58;10.00;99.90
61253;DHT22;47127;47.516;8.596;2022-12-24T09:31:26;10.00;99.90
61253;DHT22;47127;47.516;8.596;2022-12-24T09:33:52;9.90;99.90
61253;DHT22;47127;47.516;8.596;2022-12-24T09:36:19;9.80;99.90
61253;DHT22;47127;47.516;8.596;2022-12-24T09:38:45;9.70;99.90
61253;DHT22;47127;47.516;8.596;2022-12-24T09:41:12;9.80;99.90
61253;DHT22;47127;47.516;8.596;2022-12-24T09:43:38;9.80;99.90
61253;DHT22;47127;47.516;8.596;2022-12-24T09:48:52;9.80;99.90
61253;DHT22;47127;47.516;8.596;2022-12-24T09:51:38;9.80;99.90
61253;DHT22;47127;47.516;8.596;2022-12-24T09:54:16;9.90;99.90
61253;DHT22;47127;47.516;8.596;2022-12-24T09:56:46;9.90;99.90
61253;DHT22;47127;47.516;8.596;2022-12-24T09:59:23;9.90;99.90
61253;DHT22;47127;47.516;8.596;2022-12-24T10:01:52;10.00;99.90
61253;DHT22;47127;47.516;8.596;2022-12-24T10:04:20;10.00;99.90
61253;DHT22;47127;47.516;8.596;2022-12-24T10:06:56;9.90;99.90
61253;DHT22;47127;47.516;8.596;2022-12-24T10:09:57;10.00;99.90
61253;DHT22;47127;47.516;8.596;2022-12-24T10:15:17;9.80;99.90
61253;DHT22;47127;47.516;8.596;2022-12-24T10:20:49;9.90;99.90
61253;DHT22;47127;47.516;8.596;2022-12-24T10:23:41;9.90;99.90
61253;DHT22;47127;47.516;8.596;2022-12-24T10:26:31;9.80;99.90
61253;DHT22;47127;47.516;8.596;2022-12-24T10:29:18;9.80;99.90
61253;DHT22;47127;47.516;8.596;2022-12-24T10:34:43;9.80;99.90
61253;DHT22;47127;47.516;8.596;2022-12-24T10:37:19;9.80;99.90
61253;DHT22;47127;47.516;8.596;2022-12-24T10:39:46;9.80;99.90
61253;DHT22;47127;47.516;8.596;2022-12-24T10:42:12;9.80;99.90
61253;DHT22;47127;47.516;8.596;2022-12-24T10:44:39;9.90;99.90
61253;DHT22;47127;47.516;8.596;2022-12-24T10:47:06;9.90;99.90
61253;DHT22;47127;47.516;8.596;2022-12-24T10:49:44;9.90;99.90
61253;DHT22;47127;47.516;8.596;2022-12-24T10:52:14;9.90;99.90
61253;DHT22;47127;47.516;8.596;2022-12-24T10:57:44;9.90;99.90
61253;DHT22;47127;47.516;8.596;2022-12-24T11:00:19;9.90;99.90
61253;DHT22;47127;47.516;8.596;2022-12-24T11:02:46;9.90;99.90
61253;DHT22;47127;47.516;8.596;2022-12-24T11:05:33;9.90;99.90
61253;DHT22;47127;47.516;8.596;2022-12-24T11:08:17;10.00;99.90
61253;DHT22;47127;47.516;8.596;2022-12-24T11:11:00;10.00;99.90
61253;DHT22;47127;47.516;8.596;2022-12-24T11:13:35;10.00;99.90
61253;DHT22;47127;47.516;8.596;2022-12-24T11:16:06;10.00;99.90
61253;DHT22;47127;47.516;8.596;2022-12-24T11:18:35;10.00;99.90
61253;DHT22;47127;47.516;8.596;2022-12-24T11:21:02;10.10;99.90
61253;DHT22;47127;47.516;8.596;2022-12-24T11:23:28;10.10;99.90
61253;DHT22;47127;47.516;8.596;2022-12-24T11:25:55;10.10;99.90
61253;DHT22;47127;47.516;8.596;2022-12-24T11:28:28;10.20;99.90
61253;DHT22;47127;47.516;8.596;2022-12-24T11:31:03;10.20;99.90
61253;DHT22;47127;47.516;8.596;2022-12-24T11:33:30;10.30;99.90
61253;DHT22;47127;47.516;8.596;2022-12-24T11:36:00;10.20;99.90
61253;DHT22;47127;47.516;8.596;2022-12-24T11:38:28;10.30;99.90
61253;DHT22;47127;47.516;8.596;2022-12-24T11:41:03;10.40;99.90
61253;DHT22;47127;47.516;8.596;2022-12-24T11:43:36;10.40;99.90
61253;DHT22;47127;47.516;8.596;2022-12-24T11:46:58;10.30;99.90
61253;DHT22;47127;47.516;8.596;2022-12-24T11:49:28;10.30;99.90
61253;DHT22;47127;47.516;8.596;2022-12-24T11:57:27;10.40;99.90
61253;DHT22;47127;47.516;8.596;2022-12-24T11:59:56;10.40;99.90
61253;DHT22;47127;47.516;8.596;2022-12-24T12:05:15;10.40;99.90
61253;DHT22;47127;47.516;8.596;2022-12-24T12:07:41;10.40;99.90
61253;DHT22;47127;47.516;8.596;2022-12-24T12:10:29;10.40;99.90
61253;DHT22;47127;47.516;8.596;2022-12-24T12:13:03;10.40;99.90
61253;DHT22;47127;47.516;8.596;2022-12-24T12:15:36;10.50;99.90
61253;DHT22;47127;47.516;8.596;2022-12-24T12:18:07;10.50;99.90
61253;DHT22;47127;47.516;8.596;2022-12-24T12:20:47;10.50;99.90
61253;DHT22;47127;47.516;8.596;2022-12-24T12:23:34;10.60;99.90
61253;DHT22;47127;47.516;8.596;2022-12-24T12:26:09;10.50;99.90
61253;DHT22;47127;47.516;8.596;2022-12-24T12:33:42;10.40;99.90
61253;DHT22;47127;47.516;8.596;2022-12-24T12:36:10;10.40;99.90
61253;DHT22;47127;47.516;8.596;2022-12-24T12:38:37;10.40;99.90
61253;DHT22;47127;47.516;8.596;2022-12-24T12:44:13;10.10;99.90
61253;DHT22;47127;47.516;8.596;2022-12-24T12:49:42;10.00;99.90
61253;DHT22;47127;47.516;8.596;2022-12-24T12:52:36;9.90;99.90
61253;DHT22;47127;47.516;8.596;2022-12-24T12:55:39;10.00;99.90
61253;DHT22;47127;47.516;8.596;2022-12-24T13:00:53;10.10;99.90
61253;DHT22;47127;47.516;8.596;2022-12-24T13:09:15;10.10;99.90
61253;DHT22;47127;47.516;8.596;2022-12-24T13:22:58;10.10;99.90
61253;DHT22;47127;47.516;8.596;2022-12-24T13:25:54;10.00;99.90
61253;DHT22;47127;47.516;8.596;2022-12-24T13:30:48;10.00;99.90
61253;DHT22;47127;47.516;8.596;2022-12-24T13:36:01;10.00;99.90
61253;DHT22;47127;47.516;8.596;2022-12-24T13:40:53;10.00;99.90
61253;DHT22;47127;47.516;8.596;2022-12-24T13:43:19;10.00;99.90
61253;DHT22;47127;47.516;8.596;2022-12-24T13:45:47;9.90;99.90
61253;DHT22;47127;47.516;8.596;2022-12-24T13:48:27;9.90;99.90
61253;DHT22;47127;47.516;8.596;2022-12-24T13:50:57;9.90;99.90
61253;DHT22;47127;47.516;8.596;2022-12-24T13:53:40;9.90;99.90
61253;DHT22;47127;47.516;8.596;2022-12-24T13:58:43;9.90;99.90
61253;DHT22;47127;47.516;8.596;2022-12-24T14:01:12;9.90;99.90
61253;DHT22;47127;47.516;8.596;2022-12-24T14:03:54;9.80;99.90
61253;DHT22;47127;47.516;8.596;2022-12-24T14:06:27;9.90;99.90
61253;DHT22;47127;47.516;8.596;2022-12-24T14:09:10;9.90;99.90
61253;DHT22;47127;47.516;8.596;2022-12-24T14:14:36;9.80;99.90
61253;DHT22;47127;47.516;8.596;2022-12-24T14:20:08;9.80;99.90
61253;DHT22;47127;47.516;8.596;2022-12-24T14:22:42;9.70;99.90
61253;DHT22;47127;47.516;8.596;2022-12-24T14:25:15;9.70;99.90
61253;DHT22;47127;47.516;8.596;2022-12-24T14:30:21;9.60;99.90
61253;DHT22;47127;47.516;8.596;2022-12-24T14:32:48;9.50;99.90
61253;DHT22;47127;47.516;8.596;2022-12-24T14:35:17;9.60;99.90
61253;DHT22;47127;47.516;8.596;2022-12-24T14:40:29;9.50;99.90
61253;DHT22;47127;47.516;8.596;2022-12-24T14:43:17;9.50;99.90
61253;DHT22;47127;47.516;8.596;2022-12-24T14:46:03;9.50;99.90
61253;DHT22;47127;47.516;8.596;2022-12-24T14:48:36;9.50;99.90
61253;DHT22;47127;47.516;8.596;2022-12-24T14:54:30;9.60;99.90
61253;DHT22;47127;47.516;8.596;2022-12-24T14:57:22;9.60;99.90
61253;DHT22;47127;47.516;8.596;2022-12-24T14:59:54;9.70;99.90
61253;DHT22;47127;47.516;8.596;2022-12-24T15:02:36;9.70;99.90
61253;DHT22;47127;47.516;8.596;2022-12-24T15:05:11;9.70;99.90
61253;DHT22;47127;47.516;8.596;2022-12-24T15:10:30;9.70;99.90
61253;DHT22;47127;47.516;8.596;2022-12-24T15:13:11;9.70;99.90
61253;DHT22;47127;47.516;8.596;2022-12-24T15:15:42;9.70;99.90
61253;DHT22;47127;47.516;8.596;2022-12-24T15:18:14;9.80;99.90
61253;DHT22;47127;47.516;8.596;2022-12-24T15:20:42;9.80;99.90
61253;DHT22;47127;47.516;8.596;2022-12-24T15:23:18;9.80;99.90
61253;DHT22;47127;47.516;8.596;2022-12-24T15:25:44;9.80;99.90
61253;DHT22;47127;47.516;8.596;2022-12-24T15:28:22;9.70;99.90
61253;DHT22;47127;47.516;8.596;2022-12-24T15:30:47;9.70;99.90
61253;DHT22;47127;47.516;8.596;2022-12-24T15:33:13;9.70;99.90
61253;DHT22;47127;47.516;8.596;2022-12-24T15:35:48;9.70;99.90
61253;DHT22;47127;47.516;8.596;2022-12-24T15:38:33;9.60;99.90
61253;DHT22;47127;47.516;8.596;2022-12-24T15:41:03;9.60;99.90
61253;DHT22;47127;47.516;8.596;2022-12-24T15:43:30;9.60;99.90
61253;DHT22;47127;47.516;8.596;2022-12-24T15:45:56;9.70;99.90
61253;DHT22;47127;47.516;8.596;2022-12-24T15:48:25;9.70;99.90
61253;DHT22;47127;47.516;8.596;2022-12-24T15:50:56;9.60;99.90
61253;DHT22;47127;47.516;8.596;2022-12-24T15:53:24;9.60;99.90
61253;DHT22;47127;47.516;8.596;2022-12-24T16:03:57;9.60;99.90
61253;DHT22;47127;47.516;8.596;2022-12-24T16:06:23;9.60;99.90
61253;DHT22;47127;47.516;8.596;2022-12-24T16:08:49;9.50;99.90
61253;DHT22;47127;47.516;8.596;2022-12-24T16:11:22;9.50;99.90
61253;DHT22;47127;47.516;8.596;2022-12-24T16:16:48;9.50;99.90
61253;DHT22;47127;47.516;8.596;2022-12-24T16:19:19;9.50;99.90
61253;DHT22;47127;47.516;8.596;2022-12-24T16:21:51;9.50;99.90
61253;DHT22;47127;47.516;8.596;2022-12-24T16:24:20;9.60;99.90
61253;DHT22;47127;47.516;8.596;2022-12-24T16:26:46;9.50;99.90
61253;DHT22;47127;47.516;8.596;2022-12-24T16:29:15;9.50;99.90
61253;DHT22;47127;47.516;8.596;2022-12-24T16:31:49;9.50;99.90
61253;DHT22;47127;47.516;8.596;2022-12-24T16:34:15;9.60;99.90
61253;DHT22;47127;47.516;8.596;2022-12-24T16:36:45;9.60;99.90
61253;DHT22;47127;47.516;8.596;2022-12-24T16:39:20;9.60;99.90
61253;DHT22;47127;47.516;8.596;2022-12-24T16:41:50;9.60;99.90
61253;DHT22;47127;47.516;8.596;2022-12-24T16:44:34;9.60;99.90
61253;DHT22;47127;47.516;8.596;2022-12-24T16:47:00;9.70;99.90
61253;DHT22;47127;47.516;8.596;2022-12-24T16:49:26;9.70;99.90
61253;DHT22;47127;47.516;8.596;2022-12-24T16:51:53;9.70;99.90
61253;DHT22;47127;47.516;8.596;2022-12-24T16:54:19;9.70;99.90
61253;DHT22;47127;47.516;8.596;2022-12-24T16:56:44;9.70;99.90
61253;DHT22;47127;47.516;8.596;2022-12-24T16:59:15;9.70;99.90
61253;DHT22;47127;47.516;8.596;2022-12-24T17:01:42;9.70;99.90
61253;DHT22;47127;47.516;8.596;2022-12-24T17:04:07;9.60;99.90
61253;DHT22;47127;47.516;8.596;2022-12-24T17:06:33;9.70;99.90
61253;DHT22;47127;47.516;8.596;2022-12-24T17:08:59;9.60;99.90
61253;DHT22;47127;47.516;8.596;2022-12-24T17:11:24;9.60;99.90
61253;DHT22;47127;47.516;8.596;2022-12-24T17:13:49;9.60;99.90
61253;DHT22;47127;47.516;8.596;2022-12-24T17:16:15;9.70;99.90
61253;DHT22;47127;47.516;8.596;2022-12-24T17:18:41;9.70;99.90
61253;DHT22;47127;47.516;8.596;2022-12-24T17:21:06;9.60;99.90
61253;DHT22;47127;47.516;8.596;2022-12-24T17:23:32;9.70;99.90
61253;DHT22;47127;47.516;8.596;2022-12-24T17:25:58;9.60;99.90
61253;DHT22;47127;47.516;8.596;2022-12-24T17:28:23;9.60;99.90
61253;DHT22;47127;47.516;8.596;2022-12-24T17:30:49;9.60;99.90
61253;DHT22;47127;47.516;8.596;2022-12-24T17:33:15;9.60;99.90
61253;DHT22;47127;47.516;8.596;2022-12-24T17:35:41;9.60;99.90
61253;DHT22;47127;47.516;8.596;2022-12-24T17:38:07;9.60;99.90